createdAt,value
2015-10-08T00:00:05.967Z,95789
2015-10-08T00:00:24.373Z,95792
2015-10-08T00:00:42.891Z,95787
2015-10-08T00:01:01.407Z,95789
2015-10-08T00:01:19.875Z,95797
2015-10-08T00:01:38.535Z,95795
2015-10-08T00:01:57.066Z,95789
2015-10-08T00:02:15.472Z,95792
2015-10-08T00:02:33.941Z,95797
2015-10-08T00:02:52.616Z,95788
2015-10-08T00:03:11.131Z,95791
2015-10-08T00:03:29.522Z,95788
2015-10-08T00:03:48.055Z,95780
2015-10-08T00:04:06.680Z,95786
2015-10-08T00:04:25.071Z,95794
2015-10-08T00:04:43.480Z,95783
2015-10-08T00:05:01.871Z,95788
2015-10-08T00:05:20.480Z,95786
2015-10-08T00:05:38.886Z,95788
2015-10-08T00:05:57.327Z,95788
2015-10-08T00:06:15.733Z,95791
2015-10-08T00:06:34.264Z,95793
2015-10-08T00:06:52.721Z,95790
2015-10-08T00:07:11.314Z,95798
2015-10-08T00:07:29.721Z,95793
2015-10-08T00:07:48.207Z,95788
2015-10-08T00:08:06.801Z,95793
2015-10-08T00:08:25.332Z,95788
2015-10-08T00:08:43.816Z,95788
2015-10-08T00:09:02.304Z,95791
2015-10-08T00:09:20.851Z,95793
2015-10-08T00:09:39.288Z,95796
2015-10-08T00:09:57.682Z,95790
2015-10-08T00:10:16.229Z,95793
2015-10-08T00:10:34.650Z,95790
2015-10-08T00:10:53.184Z,95787
2015-10-08T00:11:11.574Z,95792
2015-10-08T00:11:30.012Z,95786
2015-10-08T00:11:48.577Z,95787
2015-10-08T00:12:07.046Z,95795
2015-10-08T00:12:25.499Z,95798
2015-10-08T00:12:43.890Z,95781
2015-10-08T00:13:02.377Z,95789
2015-10-08T00:13:20.815Z,95787
2015-10-08T00:13:39.815Z,95792
2015-10-08T00:13:58.458Z,95789
2015-10-08T00:14:17.005Z,95787
2015-10-08T00:14:35.380Z,95789
2015-10-08T00:14:53.773Z,95790
2015-10-08T00:15:12.179Z,95801
2015-10-08T00:15:30.617Z,95792
2015-10-08T00:15:49.195Z,95792
2015-10-08T00:16:07.791Z,95792
2015-10-08T00:16:26.182Z,95792
2015-10-08T00:16:44.588Z,95781
2015-10-08T00:17:03.106Z,95796
2015-10-08T00:17:21.684Z,95796
2015-10-08T00:17:40.122Z,95796
2015-10-08T00:17:58.656Z,95796
2015-10-08T00:18:17.250Z,95790
2015-10-08T00:18:35.671Z,95793
2015-10-08T00:18:54.128Z,95804
2015-10-08T00:19:12.846Z,95793
2015-10-08T00:19:31.548Z,95787
2015-10-08T00:19:50.330Z,95798
2015-10-08T00:20:08.723Z,95789
2015-10-08T00:20:27.130Z,95787
2015-10-08T00:20:45.739Z,95795
2015-10-08T00:21:04.382Z,95784
2015-10-08T00:21:23.069Z,95798
2015-10-08T00:21:41.663Z,95787
2015-10-08T00:22:00.166Z,95796
2015-10-08T00:22:19.010Z,95790
2015-10-08T00:22:37.400Z,95793
2015-10-08T00:22:55.934Z,95793
2015-10-08T00:23:14.716Z,95788
2015-10-08T00:23:33.122Z,95788
2015-10-08T00:23:51.872Z,95788
2015-10-08T00:24:10.499Z,95793
2015-10-08T00:24:28.952Z,95793
2015-10-08T00:24:47.686Z,95790
2015-10-08T00:25:06.112Z,95796
2015-10-08T00:25:24.565Z,95790
2015-10-08T00:25:42.972Z,95792
2015-10-08T00:26:01.490Z,95793
2015-10-08T00:26:20.272Z,95798
2015-10-08T00:26:38.928Z,95787
2015-10-08T00:26:57.727Z,95793
2015-10-08T00:27:16.117Z,95787
2015-10-08T00:27:34.555Z,95796
2015-10-08T00:27:52.945Z,95791
2015-10-08T00:28:11.354Z,95797
2015-10-08T00:28:29.994Z,95789
2015-10-08T00:28:48.494Z,95800
2015-10-08T00:29:06.904Z,95783
2015-10-08T00:29:25.388Z,95794
2015-10-08T00:29:43.779Z,95794
2015-10-08T00:30:02.427Z,95789
2015-10-08T00:30:20.880Z,95780
2015-10-08T00:30:39.505Z,95783
2015-10-08T00:30:57.974Z,95791
2015-10-08T00:31:16.493Z,95797
2015-10-08T00:31:34.961Z,95788
2015-10-08T00:31:53.383Z,95800
2015-10-08T00:32:11.980Z,95797
2015-10-08T00:32:30.652Z,95786
2015-10-08T00:32:49.042Z,95789
2015-10-08T00:33:07.544Z,95792
2015-10-08T00:33:26.154Z,95786
2015-10-08T00:33:44.560Z,95789
2015-10-08T00:34:03.060Z,95792
2015-10-08T00:34:21.829Z,95794
2015-10-08T00:34:40.454Z,95786
2015-10-08T00:34:58.860Z,95797
2015-10-08T00:35:17.519Z,95795
2015-10-08T00:35:36.019Z,95792
2015-10-08T00:35:54.488Z,95798
2015-10-08T00:36:12.960Z,95792
2015-10-08T00:36:31.413Z,95789
2015-10-08T00:36:49.835Z,95795
2015-10-08T00:37:08.241Z,95804
2015-10-08T00:37:26.696Z,95793
2015-10-08T00:37:45.087Z,95798
2015-10-08T00:38:03.540Z,95795
2015-10-08T00:38:21.933Z,95790
2015-10-08T00:38:40.527Z,95792
2015-10-08T00:38:59.074Z,95798
2015-10-08T00:39:17.686Z,95787
2015-10-08T00:39:36.124Z,95798
2015-10-08T00:39:54.593Z,95798
2015-10-08T00:40:13.108Z,95798
2015-10-08T00:40:31.627Z,95787
2015-10-08T00:40:50.205Z,95795
2015-10-08T00:41:08.643Z,95798
2015-10-08T00:41:27.145Z,95795
2015-10-08T00:41:45.520Z,95790
2015-10-08T00:42:03.988Z,95793
2015-10-08T00:42:22.366Z,95798
2015-10-08T00:42:40.757Z,95795
2015-10-08T00:42:59.163Z,95792
2015-10-08T00:43:17.569Z,95792
2015-10-08T00:43:36.118Z,95792
2015-10-08T00:43:55.150Z,95798
2015-10-08T00:44:13.665Z,95801
2015-10-08T00:44:31.918Z,95787
2015-10-08T00:44:50.324Z,95790
2015-10-08T00:45:08.762Z,95795
2015-10-08T00:45:27.375Z,95786
2015-10-08T00:45:45.860Z,95789
2015-10-08T00:46:04.282Z,95789
2015-10-08T00:46:22.969Z,95792
2015-10-08T00:46:41.502Z,95792
2015-10-08T00:47:00.065Z,95798
2015-10-08T00:47:18.315Z,95798
2015-10-08T00:47:36.801Z,95798
2015-10-08T00:47:55.411Z,95792
2015-10-08T00:48:14.036Z,95798
2015-10-08T00:48:32.524Z,95795
2015-10-08T00:48:50.946Z,95787
2015-10-08T00:49:09.508Z,95781
2015-10-08T00:49:28.151Z,95787
2015-10-08T00:49:46.651Z,95795
2015-10-08T00:50:05.354Z,95789
2015-10-08T00:50:23.776Z,95790
2015-10-08T00:50:42.201Z,95789
2015-10-08T00:51:00.685Z,95781
2015-10-08T00:51:19.310Z,95797
2015-10-08T00:51:37.751Z,95792
2015-10-08T00:51:56.391Z,95789
2015-10-08T00:52:14.813Z,95786
2015-10-08T00:52:33.471Z,95792
2015-10-08T00:52:51.925Z,95795
2015-10-08T00:53:10.487Z,95783
2015-10-08T00:53:29.018Z,95792
2015-10-08T00:53:47.412Z,95798
2015-10-08T00:54:05.943Z,95790
2015-10-08T00:54:24.521Z,95787
2015-10-08T00:54:43.306Z,95792
2015-10-08T00:55:01.774Z,95787
2015-10-08T00:55:20.602Z,95801
2015-10-08T00:55:39.105Z,95795
2015-10-08T00:55:57.559Z,95795
2015-10-08T00:56:16.137Z,95789
2015-10-08T00:56:34.701Z,95789
2015-10-08T00:56:53.092Z,95789
2015-10-08T00:57:11.467Z,95801
2015-10-08T00:57:30.029Z,95789
2015-10-08T00:57:48.518Z,95795
2015-10-08T00:58:07.158Z,95798
2015-10-08T00:58:25.596Z,95790
2015-10-08T00:58:44.004Z,95793
2015-10-08T00:59:02.520Z,95793
2015-10-08T00:59:20.942Z,95787
2015-10-08T00:59:39.616Z,95787
2015-10-08T00:59:58.148Z,95785
2015-10-08T01:00:16.804Z,95793
2015-10-08T01:00:35.210Z,95793
2015-10-08T01:00:53.650Z,95788
2015-10-08T01:01:12.025Z,95782
2015-10-08T01:01:30.572Z,95791
2015-10-08T01:01:48.950Z,95794
2015-10-08T01:02:07.559Z,95788
2015-10-08T01:02:26.043Z,95786
2015-10-08T01:02:44.624Z,95783
2015-10-08T01:03:02.999Z,95788
2015-10-08T01:03:21.593Z,95786
2015-10-08T01:03:39.999Z,95783
2015-10-08T01:03:58.548Z,95788
2015-10-08T01:04:16.923Z,95775
2015-10-08T01:04:35.314Z,95785
2015-10-08T01:04:53.692Z,95785
2015-10-08T01:05:12.145Z,95785
2015-10-08T01:05:30.489Z,95785
2015-10-08T01:05:48.961Z,95783
2015-10-08T01:06:07.320Z,95788
2015-10-08T01:06:25.711Z,95782
2015-10-08T01:06:44.260Z,95785
2015-10-08T01:07:02.620Z,95782
2015-10-08T01:07:21.198Z,95777
2015-10-08T01:07:39.557Z,95783
2015-10-08T01:07:58.137Z,95785
2015-10-08T01:08:16.762Z,95775
2015-10-08T01:08:35.169Z,95791
2015-10-08T01:08:53.626Z,95783
2015-10-08T01:09:12.126Z,95783
2015-10-08T01:09:30.891Z,95783
2015-10-08T01:09:49.253Z,95788
2015-10-08T01:10:07.753Z,95788
2015-10-08T01:10:26.143Z,95780
2015-10-08T01:10:44.518Z,95791
2015-10-08T01:15:30.281Z,95776
2015-10-08T01:15:48.738Z,95779
2015-10-08T01:16:07.113Z,95779
2015-10-08T01:16:25.550Z,95778
2015-10-08T01:16:44.034Z,95774
2015-10-08T01:17:02.490Z,95776
2015-10-08T01:17:20.318Z,95774
2015-10-08T01:17:38.693Z,95778
2015-10-08T01:17:57.087Z,95778
2015-10-08T01:18:15.462Z,95775
2015-10-08T01:18:33.822Z,95778
2015-10-08T01:18:52.308Z,95771
2015-10-08T01:19:10.746Z,95776
2015-10-08T01:19:29.136Z,95776
2015-10-08T01:19:47.558Z,95781
2015-10-08T01:20:05.983Z,95781
2015-10-08T01:20:24.249Z,95783
2015-10-08T01:20:42.624Z,95775
2015-10-08T01:21:00.970Z,95779
2015-10-08T01:21:19.564Z,95779
2015-10-08T01:21:37.939Z,95781
2015-10-08T01:21:56.470Z,95776
2015-10-08T01:22:14.832Z,95771
2015-10-08T01:22:33.613Z,95779
2015-10-08T01:22:52.160Z,95784
2015-10-08T01:23:10.600Z,95771
2015-10-08T01:23:29.100Z,95774
2015-10-08T01:23:47.522Z,95769
2015-10-08T01:24:05.886Z,95779
2015-10-08T01:24:24.448Z,95771
2015-10-08T01:24:42.823Z,95778
2015-10-08T01:25:01.214Z,95771
2015-10-08T01:25:19.575Z,95774
2015-10-08T01:25:37.950Z,95774
2015-10-08T01:25:56.309Z,95782
2015-10-08T01:26:14.672Z,95779
2015-10-08T01:26:33.062Z,95770
2015-10-08T01:26:51.578Z,95777
2015-10-08T01:27:10.003Z,95782
2015-10-08T01:27:28.409Z,95777
2015-10-08T01:27:46.769Z,95780
2015-10-08T01:28:05.159Z,95775
2015-10-08T01:28:23.662Z,95767
2015-10-08T01:28:42.084Z,95773
2015-10-08T01:29:00.459Z,95773
2015-10-08T01:29:18.852Z,95775
2015-10-08T01:29:37.305Z,95777
2015-10-08T01:29:55.867Z,95773
2015-10-08T01:30:14.261Z,95773
2015-10-08T01:30:32.636Z,95772
2015-10-08T01:30:51.214Z,95772
2015-10-08T01:31:09.701Z,95780
2015-10-08T01:31:28.092Z,95775
2015-10-08T01:31:46.451Z,95775
2015-10-08T01:32:04.842Z,95770
2015-10-08T01:32:23.235Z,95775
2015-10-08T01:32:41.844Z,95772
2015-10-08T01:33:00.219Z,95775
2015-10-08T01:33:18.581Z,95776
2015-10-08T01:33:36.941Z,95776
2015-10-08T01:33:55.347Z,95781
2015-10-08T01:34:13.709Z,95779
2015-10-08T01:34:32.069Z,95772
2015-10-08T01:34:50.491Z,95779
2015-10-08T01:35:08.866Z,95779
2015-10-08T01:35:27.321Z,95769
2015-10-08T01:35:45.790Z,95770
2015-10-08T01:36:04.258Z,95767
2015-10-08T01:36:22.839Z,95767
2015-10-08T01:36:41.511Z,95764
2015-10-08T01:37:00.043Z,95780
2015-10-08T01:37:18.608Z,95773
2015-10-08T01:37:37.014Z,95775
2015-10-08T01:37:55.374Z,95767
2015-10-08T01:38:13.811Z,95764
2015-10-08T01:38:32.174Z,95775
2015-10-08T01:38:50.720Z,95769
2015-10-08T01:39:09.252Z,95764
2015-10-08T01:39:28.097Z,95780
2015-10-08T01:39:46.472Z,95762
2015-10-08T01:40:05.066Z,95768
2015-10-08T01:40:23.569Z,95757
2015-10-08T01:40:42.085Z,95773
2015-10-08T01:41:00.460Z,95768
2015-10-08T01:41:19.022Z,95762
2015-10-08T01:41:37.540Z,95762
2015-10-08T01:41:56.040Z,95764
2015-10-08T01:42:14.493Z,95767
2015-10-08T01:42:33.152Z,95761
2015-10-08T01:42:51.543Z,95764
2015-10-08T01:43:10.059Z,95761
2015-10-08T01:43:28.499Z,95775
2015-10-08T01:43:47.093Z,95762
2015-10-08T01:44:05.452Z,95759
2015-10-08T01:44:23.843Z,95761
2015-10-08T01:44:42.377Z,95758
2015-10-08T01:45:00.908Z,95758
2015-10-08T01:45:19.565Z,95753
2015-10-08T01:45:38.036Z,95755
2015-10-08T01:45:56.458Z,95763
2015-10-08T01:46:15.005Z,95766
2015-10-08T01:46:33.242Z,95766
2015-10-08T01:46:51.852Z,95764
2015-10-08T01:47:10.555Z,95761
2015-10-08T01:47:29.135Z,95769
2015-10-08T01:47:47.494Z,95769
2015-10-08T01:48:06.041Z,95763
2015-10-08T01:48:24.448Z,95766
2015-10-08T01:48:42.810Z,95769
2015-10-08T01:49:01.263Z,95769
2015-10-08T01:49:19.904Z,95769
2015-10-08T01:49:38.313Z,95764
2015-10-08T01:49:56.875Z,95764
2015-10-08T01:50:15.579Z,95758
2015-10-08T01:50:34.096Z,95767
2015-10-08T01:50:52.440Z,95762
2015-10-08T01:51:10.784Z,95767
2015-10-08T01:51:29.190Z,95767
2015-10-08T01:51:47.568Z,95762
2015-10-08T01:52:06.005Z,95762
2015-10-08T01:52:24.412Z,95775
2015-10-08T01:52:43.149Z,95765
2015-10-08T01:53:01.821Z,95765
2015-10-08T01:53:20.180Z,95767
2015-10-08T01:53:38.574Z,95767
2015-10-08T01:53:57.074Z,95770
2015-10-08T01:54:15.574Z,95767
2015-10-08T01:54:34.105Z,95767
2015-10-08T01:54:52.607Z,95768
2015-10-08T01:55:11.092Z,95765
2015-10-08T01:55:29.810Z,95765
2015-10-08T01:55:48.235Z,95767
2015-10-08T01:56:06.423Z,95773
2015-10-08T01:56:25.126Z,95770
2015-10-08T01:56:43.598Z,95773
2015-10-08T01:57:02.019Z,95762
2015-10-08T01:57:20.566Z,95767
2015-10-08T01:57:38.926Z,95775
2015-10-08T01:57:57.476Z,95769
2015-10-08T01:58:16.116Z,95772
2015-10-08T01:58:34.569Z,95767
2015-10-08T01:58:52.994Z,95764
2015-10-08T01:59:11.479Z,95766
2015-10-08T01:59:30.369Z,95763
2015-10-08T01:59:48.997Z,95772
2015-10-08T02:00:07.528Z,95766
2015-10-08T02:00:25.872Z,95774
2015-10-08T02:00:44.372Z,95765
2015-10-08T02:01:03.062Z,95771
2015-10-08T02:01:21.484Z,95774
2015-10-08T02:01:40.077Z,95768
2015-10-08T02:01:58.439Z,95768
2015-10-08T02:02:17.032Z,95763
2015-10-08T02:02:35.564Z,95768
2015-10-08T02:02:53.973Z,95774
2015-10-08T02:03:12.567Z,95757
2015-10-08T02:03:31.051Z,95769
2015-10-08T02:03:49.504Z,95769
2015-10-08T02:04:08.195Z,95768
2015-10-08T02:04:26.679Z,95768
2015-10-08T02:04:45.257Z,95773
2015-10-08T02:05:03.870Z,95775
2015-10-08T02:05:22.323Z,95762
2015-10-08T02:05:40.666Z,95765
2015-10-08T02:05:58.966Z,95765
2015-10-08T02:06:17.513Z,95771
2015-10-08T02:06:36.419Z,95768
2015-10-08T02:06:54.890Z,95776
2015-10-08T02:07:13.437Z,95768
2015-10-08T02:07:31.812Z,95771
2015-10-08T02:07:50.468Z,95768
2015-10-08T02:08:08.940Z,95768
2015-10-08T02:08:27.471Z,95775
2015-10-08T02:08:45.940Z,95771
2015-10-08T02:09:04.349Z,95766
2015-10-08T02:09:22.834Z,95769
2015-10-08T02:09:41.240Z,95769
2015-10-08T02:09:59.836Z,95775
2015-10-08T02:10:18.289Z,95769
2015-10-08T02:10:36.867Z,95769
2015-10-08T02:10:55.557Z,95764
2015-10-08T02:11:13.995Z,95767
2015-10-08T02:11:32.807Z,95780
2015-10-08T02:11:51.339Z,95770
2015-10-08T02:12:09.685Z,95770
2015-10-08T02:12:28.154Z,95770
2015-10-08T02:12:46.732Z,95772
2015-10-08T02:13:05.235Z,95775
2015-10-08T02:13:23.735Z,95765
2015-10-08T02:13:42.188Z,95768
2015-10-08T02:14:00.598Z,95771
2015-10-08T02:14:19.207Z,95773
2015-10-08T02:14:37.723Z,95776
2015-10-08T02:14:56.285Z,95781
2015-10-08T02:15:14.740Z,95771
2015-10-08T02:15:33.147Z,95782
2015-10-08T02:15:51.615Z,95774
2015-10-08T02:16:10.243Z,95774
2015-10-08T02:16:28.946Z,95775
2015-10-08T02:16:47.493Z,95779
2015-10-08T02:17:05.856Z,95774
2015-10-08T02:17:24.590Z,95781
2015-10-08T02:17:43.215Z,95787
2015-10-08T02:18:04.574Z,95781
2015-10-08T02:18:23.014Z,95781
2015-10-08T02:18:41.592Z,95781
2015-10-08T02:19:00.139Z,95773
2015-10-08T02:19:18.939Z,95778
2015-10-08T02:19:37.376Z,95784
2015-10-08T02:19:55.970Z,95775
2015-10-08T02:20:14.629Z,95778
2015-10-08T02:20:33.176Z,95781
2015-10-08T02:20:51.676Z,95778
2015-10-08T02:21:10.054Z,95775
2015-10-08T02:21:27.914Z,95787
2015-10-08T02:21:46.445Z,95781
2015-10-08T02:22:04.992Z,95778
2015-10-08T02:22:23.697Z,95775
2015-10-08T02:22:42.259Z,95777
2015-10-08T02:23:00.634Z,95777
2015-10-08T02:23:19.044Z,95782
2015-10-08T02:23:37.700Z,95776
2015-10-08T02:23:56.294Z,95776
2015-10-08T02:24:14.703Z,95775
2015-10-08T02:24:33.172Z,95777
2015-10-08T02:24:51.828Z,95769
2015-10-08T02:25:10.172Z,95777
2015-10-08T02:25:28.564Z,95783
2015-10-08T02:25:46.986Z,95775
2015-10-08T02:26:05.392Z,95777
2015-10-08T02:26:23.973Z,95785
2015-10-08T02:26:42.520Z,95785
2015-10-08T02:27:00.973Z,95783
2015-10-08T02:27:19.555Z,95783
2015-10-08T02:27:38.086Z,95775
2015-10-08T02:27:56.539Z,95788
2015-10-08T02:28:14.945Z,95775
2015-10-08T02:28:33.589Z,95778
2015-10-08T02:28:51.964Z,95783
2015-10-08T02:29:10.542Z,95783
2015-10-08T02:29:29.092Z,95782
2015-10-08T02:29:47.607Z,95780
2015-10-08T02:30:06.139Z,95780
2015-10-08T02:30:24.547Z,95785
2015-10-08T02:30:42.969Z,95772
2015-10-08T02:31:01.391Z,95776
2015-10-08T02:31:19.972Z,95779
2015-10-08T02:31:38.394Z,95776
2015-10-08T02:31:56.769Z,95779
2015-10-08T02:32:15.487Z,95772
2015-10-08T02:32:33.865Z,95772
2015-10-08T02:32:52.209Z,95775
2015-10-08T02:33:10.709Z,95775
2015-10-08T02:33:29.197Z,95775
2015-10-08T02:33:47.556Z,95775
2015-10-08T02:34:05.947Z,95780
2015-10-08T02:34:24.386Z,95775
2015-10-08T02:34:42.745Z,95775
2015-10-08T02:35:01.167Z,95777
2015-10-08T02:35:19.620Z,95777
2015-10-08T02:35:38.233Z,95783
2015-10-08T02:35:56.577Z,95775
2015-10-08T02:36:15.030Z,95780
2015-10-08T02:36:33.423Z,95780
2015-10-08T02:36:51.783Z,95773
2015-10-08T02:37:10.236Z,95783
2015-10-08T02:37:28.629Z,95777
2015-10-08T02:37:47.036Z,95785
2015-10-08T02:38:05.551Z,95785
2015-10-08T02:38:23.942Z,95775
2015-10-08T02:38:42.289Z,95775
2015-10-08T02:39:00.773Z,95780
2015-10-08T02:39:19.226Z,95777
2015-10-08T02:39:37.588Z,95775
2015-10-08T02:39:55.931Z,95780
2015-10-08T02:40:14.338Z,95791
2015-10-08T02:40:32.950Z,95780
2015-10-08T02:40:51.294Z,95773
2015-10-08T02:41:09.919Z,95780
2015-10-08T02:41:28.481Z,95780
2015-10-08T02:41:47.172Z,95772
2015-10-08T02:42:05.734Z,95780
2015-10-08T02:42:24.187Z,95783
2015-10-08T02:42:42.564Z,95783
2015-10-08T02:43:01.017Z,95775
2015-10-08T02:43:19.502Z,95789
2015-10-08T02:43:38.052Z,95788
2015-10-08T02:43:56.427Z,95777
2015-10-08T02:44:14.880Z,95777
2015-10-08T02:44:33.270Z,95785
2015-10-08T02:44:51.663Z,95783
2015-10-08T02:45:10.022Z,95783
2015-10-08T02:45:28.476Z,95778
2015-10-08T02:45:46.855Z,95775
2015-10-08T02:46:05.230Z,95777
2015-10-08T02:46:23.948Z,95780
2015-10-08T02:46:42.607Z,95777
2015-10-08T02:47:01.044Z,95780
2015-10-08T02:47:19.700Z,95785
2015-10-08T02:47:38.172Z,95780
2015-10-08T02:47:56.563Z,95778
2015-10-08T02:48:14.969Z,95783
2015-10-08T02:48:33.578Z,95770
2015-10-08T02:48:52.113Z,95783
2015-10-08T02:49:10.566Z,95770
2015-10-08T02:49:28.956Z,95775
2015-10-08T02:49:47.490Z,95783
2015-10-08T02:50:06.146Z,95780
2015-10-08T02:50:24.505Z,95780
2015-10-08T02:50:43.072Z,95773
2015-10-08T02:51:01.525Z,95773
2015-10-08T02:51:19.697Z,95773
2015-10-08T02:51:38.259Z,95777
2015-10-08T02:51:56.792Z,95777
2015-10-08T02:52:15.355Z,95785
2015-10-08T02:52:33.777Z,95783
2015-10-08T02:52:52.294Z,95780
2015-10-08T02:53:10.654Z,95783
2015-10-08T02:53:29.044Z,95783
2015-10-08T02:53:47.548Z,95780
2015-10-08T02:54:05.908Z,95783
2015-10-08T02:54:24.564Z,95778
2015-10-08T02:54:43.455Z,95781
2015-10-08T02:55:02.066Z,95778
2015-10-08T02:55:20.769Z,95778
2015-10-08T02:55:39.285Z,95784
2015-10-08T02:55:58.022Z,95776
2015-10-08T02:56:16.522Z,95787
2015-10-08T02:56:34.960Z,95784
2015-10-08T02:56:53.493Z,95776
2015-10-08T02:57:11.837Z,95787
2015-10-08T02:57:30.259Z,95787
2015-10-08T02:57:48.638Z,95778
2015-10-08T02:58:07.184Z,95787
2015-10-08T02:58:25.747Z,95784
2015-10-08T02:58:44.106Z,95784
2015-10-08T02:59:02.843Z,95778
2015-10-08T02:59:21.483Z,95787
2015-10-08T02:59:40.030Z,95781
2015-10-08T02:59:58.611Z,95770
2015-10-08T03:00:17.080Z,95783
2015-10-08T03:00:35.424Z,95778
2015-10-08T03:00:53.817Z,95784
2015-10-08T03:01:12.286Z,95778
2015-10-08T03:01:30.630Z,95787
2015-10-08T03:01:49.099Z,95773
2015-10-08T03:02:07.538Z,95773
2015-10-08T03:02:25.976Z,95775
2015-10-08T03:02:44.319Z,95775
2015-10-08T03:03:02.681Z,95786
2015-10-08T03:03:21.228Z,95781
2015-10-08T03:03:39.821Z,95781
2015-10-08T03:03:58.185Z,95781
2015-10-08T03:04:16.575Z,95783
2015-10-08T03:04:34.935Z,95773
2015-10-08T03:04:53.513Z,95778
2015-10-08T03:05:11.859Z,95789
2015-10-08T03:05:30.327Z,95778
2015-10-08T03:05:48.999Z,95783
2015-10-08T03:06:07.596Z,95780
2015-10-08T03:06:26.221Z,95778
2015-10-08T03:06:44.596Z,95775
2015-10-08T03:07:03.082Z,95776
2015-10-08T03:07:21.442Z,95781
2015-10-08T03:07:39.879Z,95776
2015-10-08T03:07:58.632Z,95778
2015-10-08T03:08:16.992Z,95781
2015-10-08T03:08:35.523Z,95781
2015-10-08T03:08:53.867Z,95778
2015-10-08T03:09:12.261Z,95781
2015-10-08T03:09:30.683Z,95778
2015-10-08T03:09:49.121Z,95789
2015-10-08T03:10:07.670Z,95784
2015-10-08T03:10:54.888Z,95787
2015-10-08T03:13:01.019Z,95790
2015-10-08T03:13:19.397Z,95784
2015-10-08T03:13:37.913Z,95792
2015-10-08T03:13:56.397Z,95787
2015-10-08T03:14:14.822Z,95787
2015-10-08T03:14:33.244Z,95787
2015-10-08T03:14:51.713Z,95787
2015-10-08T03:15:10.105Z,95785
2015-10-08T03:15:28.449Z,95788
2015-10-08T03:15:46.902Z,95788
2015-10-08T03:16:05.465Z,95787
2015-10-08T03:16:23.842Z,95787
2015-10-08T03:16:42.279Z,95790
2015-10-08T03:17:00.717Z,95787
2015-10-08T03:17:19.282Z,95788
2015-10-08T03:17:37.673Z,95785
2015-10-08T03:17:56.360Z,95785
2015-10-08T03:18:14.958Z,95782
2015-10-08T03:18:33.177Z,95782
2015-10-08T03:18:51.833Z,95787
2015-10-08T03:19:10.396Z,95785
2015-10-08T03:19:28.882Z,95790
2015-10-08T03:19:47.460Z,95793
2015-10-08T03:20:05.820Z,95790
2015-10-08T03:20:24.182Z,95787
2015-10-08T03:20:42.604Z,95793
2015-10-08T03:21:00.963Z,95790
2015-10-08T03:21:19.371Z,95793
2015-10-08T03:21:38.075Z,95794
2015-10-08T03:21:56.512Z,95799
2015-10-08T03:22:15.059Z,95793
2015-10-08T03:22:33.453Z,95788
2015-10-08T03:22:51.828Z,95787
2015-10-08T03:23:10.203Z,95793
2015-10-08T03:23:28.815Z,95796
2015-10-08T03:23:47.221Z,95799
2015-10-08T03:24:05.831Z,95790
2015-10-08T03:24:24.427Z,95785
2015-10-08T03:24:42.990Z,95793
2015-10-08T03:25:01.380Z,95793
2015-10-08T03:25:19.755Z,95798
2015-10-08T03:25:38.273Z,95792
2015-10-08T03:25:56.632Z,95790
2015-10-08T03:26:15.023Z,95790
2015-10-08T03:26:33.433Z,95789
2015-10-08T03:26:51.886Z,95789
2015-10-08T03:27:10.511Z,95789
2015-10-08T03:27:28.951Z,95789
2015-10-08T03:27:47.326Z,95792
2015-10-08T03:28:05.701Z,95794
2015-10-08T03:28:24.154Z,95806
2015-10-08T03:28:42.610Z,95798
2015-10-08T03:29:00.970Z,95792
2015-10-08T03:29:19.454Z,95798
2015-10-08T03:29:38.003Z,95795
2015-10-08T03:29:56.362Z,95798
2015-10-08T03:30:14.753Z,95798
2015-10-08T03:30:33.115Z,95801
2015-10-08T03:30:51.521Z,95804
2015-10-08T03:31:09.896Z,95798
2015-10-08T03:31:28.321Z,95801
2015-10-08T03:31:46.712Z,95790
2015-10-08T03:32:05.103Z,95798
2015-10-08T03:32:23.509Z,95795
2015-10-08T03:32:41.917Z,95800
2015-10-08T03:33:00.511Z,95795
2015-10-08T03:33:18.917Z,95806
2015-10-08T03:33:37.326Z,95795
2015-10-08T03:33:55.733Z,95803
2015-10-08T03:34:14.201Z,95798
2015-10-08T03:34:32.673Z,95790
2015-10-08T03:34:50.923Z,95792
2015-10-08T03:35:09.329Z,95792
2015-10-08T03:35:27.736Z,95792
2015-10-08T03:35:46.097Z,95792
2015-10-08T03:36:04.503Z,95792
2015-10-08T03:36:22.956Z,95792
2015-10-08T03:36:41.397Z,95803
2015-10-08T03:36:59.850Z,95803
2015-10-08T03:37:18.366Z,95800
2015-10-08T03:37:36.775Z,95794
2015-10-08T03:37:55.290Z,95798
2015-10-08T03:38:13.665Z,95803
2015-10-08T03:38:32.072Z,95798
2015-10-08T03:38:50.465Z,95803
2015-10-08T03:39:09.043Z,95795
2015-10-08T03:39:27.497Z,95795
2015-10-08T03:39:46.078Z,95803
2015-10-08T03:40:04.500Z,95800
2015-10-08T03:40:22.859Z,95798
2015-10-08T03:40:41.440Z,95798
2015-10-08T03:41:00.065Z,95798
2015-10-08T03:41:18.581Z,95806
2015-10-08T03:41:37.018Z,95803
2015-10-08T03:41:55.489Z,95806
2015-10-08T03:42:13.958Z,95809
2015-10-08T03:42:32.380Z,95801
2015-10-08T03:42:50.789Z,95807
2015-10-08T03:43:09.195Z,95809
2015-10-08T03:43:27.554Z,95815
2015-10-08T03:43:46.197Z,95806
2015-10-08T03:44:04.666Z,95806
2015-10-08T03:44:23.025Z,95806
2015-10-08T03:44:41.494Z,95809
2015-10-08T03:44:59.856Z,95809
2015-10-08T03:45:18.216Z,95806
2015-10-08T03:45:36.559Z,95806
2015-10-08T03:45:54.922Z,95806
2015-10-08T03:46:13.312Z,95811
2015-10-08T03:46:31.672Z,95806
2015-10-08T03:46:50.128Z,95808
2015-10-08T03:47:08.644Z,95806
2015-10-08T03:47:27.034Z,95809
2015-10-08T03:47:45.394Z,95803
2015-10-08T03:48:04.022Z,95809
2015-10-08T03:48:22.443Z,95803
2015-10-08T03:48:40.881Z,95806
2015-10-08T03:48:59.305Z,95817
2015-10-08T03:49:17.664Z,95812
2015-10-08T03:49:36.336Z,95806
2015-10-08T03:49:54.761Z,95806
2015-10-08T03:50:13.277Z,95803
2015-10-08T03:50:31.652Z,95806
2015-10-08T03:50:50.073Z,95806
2015-10-08T03:51:08.514Z,95803
2015-10-08T03:51:26.983Z,95809
2015-10-08T03:51:45.342Z,95815
2015-10-08T03:52:03.797Z,95810
2015-10-08T03:52:22.141Z,95806
2015-10-08T03:52:40.610Z,95806
2015-10-08T03:52:59.191Z,95809
2015-10-08T03:53:17.597Z,95806
2015-10-08T03:53:36.066Z,95806
2015-10-08T03:53:54.413Z,95815
2015-10-08T03:54:12.772Z,95803
2015-10-08T03:54:31.288Z,95806
2015-10-08T03:54:49.866Z,95798
2015-10-08T03:55:08.353Z,95810
2015-10-08T03:55:26.853Z,95807
2015-10-08T03:55:45.556Z,95812
2015-10-08T03:56:03.950Z,95801
2015-10-08T03:56:22.465Z,95804
2015-10-08T03:56:41.231Z,95813
2015-10-08T03:56:59.609Z,95807
2015-10-08T03:57:17.953Z,95810
2015-10-08T03:57:36.406Z,95810
2015-10-08T03:57:54.812Z,95804
2015-10-08T03:58:13.158Z,95807
2015-10-08T03:58:31.549Z,95804
2015-10-08T03:58:49.970Z,95815
2015-10-08T03:59:08.316Z,95810
2015-10-08T03:59:26.738Z,95798
2015-10-08T03:59:45.082Z,95801
2015-10-08T04:00:03.491Z,95807
2015-10-08T04:00:21.882Z,95809
2015-10-08T04:00:40.319Z,95806
2015-10-08T04:00:58.882Z,95806
2015-10-08T04:01:17.432Z,95809
2015-10-08T04:01:35.900Z,95809
2015-10-08T04:01:54.291Z,95798
2015-10-08T04:02:12.810Z,95803
2015-10-08T04:02:31.231Z,95806
2015-10-08T04:02:49.825Z,95815
2015-10-08T04:03:08.203Z,95801
2015-10-08T04:03:26.953Z,95815
2015-10-08T04:03:45.422Z,95807
2015-10-08T04:04:10.003Z,95804
2015-10-08T04:04:28.441Z,95809
2015-10-08T04:04:46.862Z,95804